Latest Coastal Weather Observations for Laverton

IDV60701

Issued at 9:51 am EDT Thursday 5 March 2015 (issued every 10 minutes, with the page automatically refreshed every 10 minutes)

About coastal observations | Map of coastal stations | Coastal observations for VIC | Marine services | Other Formats
Station Details ID: 087031 Name: LAVERTON RAAF Lat: -37.86 Lon: 144.76 Height: 20.1 m
Data from the previous 72 hours. | See also: Recent months at Laverton
Date/Time
EDT
Temp

°C
Wind Pressure Rain
since 9am
mm
Weather Cloud Vis
km
Sea
Height
m
Swell
Dir
 
Speed
knots
Gust
knots
hPa Trend Height
m
Period
s
Dir
05/09:40am 14.9 SW 19 29 1016.9 - 0.0 - - 10 - - - -
05/09:30am 14.8 SW 17 23 1016.8 - 0.0 - - 10 - - - -
05/09:00am 13.7 SW 15 22 1016.5 - 0.4 - - 10 - - - -
05/08:30am 12.6 WSW 12 17 1016.2 - 0.4 - - 10 - - - -
05/08:00am 11.5 SW 11 16 1015.6 - 0.4 - - 10 - - - -
05/07:30am 11.2 WSW 11 19 1015.0 - 0.4 - - 10 - - - -
05/07:00am 10.9 SW 11 15 1014.8 - 0.2 - - 10 - - - -
05/06:30am 11.4 SW 10 14 1014.7 - 0.2 - - 10 - - - -
05/06:00am 11.8 WSW 13 19 1014.5 - 0.2 - - 10 - - - -
05/05:30am 12.1 WSW 15 23 1013.8 - 0.2 - - 10 - - - -
05/05:00am 12.2 WSW 14 22 1013.4 - 0.2 - - 10 - - - -
05/04:30am 12.7 SW 17 27 1012.9 - 0.2 - Partly cloudy 10 - - - -
05/04:00am 13.6 SW 22 33 1012.2 - 0.2 - Partly cloudy 10 - - - -
05/03:32am 14.2 WSW 23 34 1011.5 - 0.2 - Partly cloudy 10 - - - -
05/03:30am 14.3 WSW 23 34 1011.4 - 0.2 - Partly cloudy 10 - - - -
05/03:10am 14.8 WSW 16 30 1010.9 - 0.2 - Partly cloudy 10 - - - -
05/03:00am 14.9 WSW 16 23 1010.6 - 0.2 Recent precip. Cloudy 10 - - - -
05/02:44am 14.8 WSW 17 27 1010.4 - 0.2 - Partly cloudy 10 - - - -
05/02:30am 14.6 WSW 23 35 1010.3 - 0.2 - Partly cloudy 3 - - - -
05/02:21am 15.9 WSW 16 28 1010.2 - 0.0 - Partly cloudy 7 - - - -
05/02:00am 16.9 W 19 31 1009.9 - 0.0 - Partly cloudy 10 - - - -
05/01:30am 17.9 W 17 28 1009.7 - 0.0 - Partly cloudy 10 - - - -
05/01:05am 18.1 W 17 28 1009.4 - 0.0 - Partly cloudy 10 - - - -
05/01:00am 18.2 W 17 23 1009.4 - 0.0 - Partly cloudy 10 - - - -
05/12:30am 18.4 WNW 14 21 1009.3 - 0.0 - Partly cloudy 10 - - - -
05/12:01am 19.2 W 19 29 1009.6 - 0.0 - Partly cloudy 10 - - - -
 
Date/Time
EDT
Temp

°C
Wind Pressure Rain
since 9am
mm
Weather Cloud Vis
km
Sea
Height
m
Swell
Dir
 
Speed
knots
Gust
knots
hPa Trend Height
m
Period
s
Dir
04/11:43pm 19.4 W 13 28 1009.4 - 0.0 - Cloudy 10 - - - -
04/11:30pm 18.3 WNW 8 13 1009.4 - 0.0 - Partly cloudy 10 - - - -
04/11:00pm 19.2 W 12 19 1009.5 - 0.0 - - 10 - - - -
04/10:30pm 19.8 WSW 15 24 1009.6 - 0.0 - - 10 - - - -
04/10:27pm 19.9 WSW 15 24 1009.6 - 0.0 - - 10 - - - -
04/10:00pm 19.8 W 10 14 1009.6 - 0.0 - - 10 - - - -
04/09:30pm 20.3 W 11 18 1009.6 - 0.0 - - 10 - - - -
04/09:00pm 20.8 W 12 17 1009.4 - 0.0 - - 10 - - - -
04/08:30pm 21.3 W 11 14 1009.1 - 0.0 - - 10 - - - -
04/08:00pm 21.8 WSW 13 19 1009.2 - 0.0 - - 10 - - - -
04/07:30pm 22.6 WSW 13 18 1009.3 - 0.0 - - 10 - - - -
04/07:00pm 23.5 WSW 13 17 1009.5 - 0.0 - - 10 - - - -
04/06:30pm 24.1 W 13 20 1009.6 - 0.0 - Partly cloudy 10 - - - -
04/06:00pm 24.3 W 12 17 1009.7 - 0.0 - Mostly clear 10 - - - -
04/05:30pm 24.5 WSW 11 17 1009.9 - 0.0 - Partly cloudy 10 - - - -
04/05:00pm 23.8 WSW 11 22 1010.2 - 0.0 - Partly cloudy 10 - - - -
04/04:30pm 24.1 W 10 17 1010.5 - 0.0 - Partly cloudy 10 - - - -
04/04:00pm 24.3 WSW 12 17 1010.9 - 0.0 - - 10 - - - -
04/03:30pm 23.4 W 13 20 1011.4 - 0.0 - - 10 - - - -
04/03:00pm 23.7 WNW 10 18 1011.9 - 0.0 - Clear 10 - - - -
04/02:30pm 23.1 WNW 10 16 1012.4 - 0.0 - Partly cloudy 10 - - - -
04/02:00pm 22.2 WNW 8 14 1012.9 - 0.0 - Partly cloudy 10 - - - -
04/01:30pm 21.5 W 11 16 1013.4 - 0.0 - Partly cloudy 10 - - - -
04/01:00pm 21.3 WNW 12 20 1013.8 - 0.0 - Partly cloudy 10 - - - -
04/12:30pm 20.5 W 12 15 1014.4 - 0.0 - Cloudy 10 - - - -
04/12:00pm 20.1 WSW 9 16 1015.1 - 0.0 - Mostly cloudy 10 - - - -
04/11:30am 18.8 WSW 11 16 1015.3 - 0.0 - Partly cloudy 10 - - - -
04/11:00am 18.7 WSW 9 14 1015.5 - 0.0 - Partly cloudy 10 - - - -
04/10:30am 17.9 WSW 10 13 1015.6 - 0.0 - Partly cloudy 10 - - - -
04/10:00am 17.4 WSW 10 14 1015.5 - 0.0 - Partly cloudy 10 - - - -
04/09:30am 16.9 W 9 12 1015.5 - 0.0 - - 10 - - - -
04/09:00am 16.3 WNW 9 12 1015.7 - 0.0 - - 10 - - - -
04/08:30am 15.0 WNW 7 9 1015.4 - 0.0 - - 10 - - - -
04/08:00am 13.3 WNW 6 7 1015.4 - 0.0 - - 10 - - - -
04/07:30am 13.1 W 6 8 1015.0 - 0.0 - Partly cloudy 10 - - - -
04/07:00am 13.2 W 5 7 1014.8 - 0.0 - Partly cloudy 10 - - - -
04/06:30am 13.5 W 5 6 1014.7 - 0.0 - Partly cloudy 10 - - - -
04/06:00am 13.9 WSW 4 5 1014.7 - 0.0 - Mostly cloudy 10 - - - -
04/05:30am 13.7 W 4 6 1014.8 - 0.0 - Cloudy 10 - - - -
04/05:00am 13.5 SW 5 6 1014.8 - 0.0 - Partly cloudy 10 - - - -
04/04:30am 14.0 SW 9 11 1014.8 - 0.0 - Partly cloudy 10 - - - -
04/04:00am 14.5 WSW 7 10 1014.8 - 0.0 - Cloudy 10 - - - -
04/03:30am 14.7 WSW 8 10 1014.8 - 0.0 - Cloudy 10 - - - -
04/03:00am 14.5 WSW 7 9 1015.2 - 0.0 - Mostly cloudy 10 - - - -
04/02:30am 14.6 W 7 10 1015.7 - 0.0 - Cloudy 10 - - - -
04/02:00am 14.6 W 6 8 1015.8 - 0.0 - Partly cloudy 10 - - - -
04/01:30am 14.4 W 5 7 1015.9 - 0.0 - Cloudy 10 - - - -
04/01:00am 13.4 W 5 6 1016.0 - 0.0 - Partly cloudy 10 - - - -
04/12:30am 13.7 W 4 5 1016.3 - 0.0 - Partly cloudy 10 - - - -
04/12:00am 15.2 SW 4 5 1016.5 - 0.0 - Mostly clear 10 - - - -
 
Date/Time
EDT
Temp

°C
Wind Pressure Rain
since 9am
mm
Weather Cloud Vis
km
Sea
Height
m
Swell
Dir
 
Speed
knots
Gust
knots
hPa Trend Height
m
Period
s
Dir
03/11:30pm 15.5 SW 5 6 1016.7 - 0.0 - - 10 - - - -
03/11:00pm 15.9 SW 4 5 1016.8 - 0.0 - - 10 - - - -
03/10:30pm 16.3 SSW 5 6 1016.9 - 0.0 - - 10 - - - -
03/10:00pm 16.6 S 5 7 1016.8 - 0.0 - - 10 - - - -
03/09:30pm 17.0 S 7 9 1016.5 - 0.0 - - 10 - - - -
03/09:00pm 17.4 S 9 13 1016.3 - 0.0 - - 10 - - - -
03/08:30pm 17.7 S 9 13 1015.8 - 0.0 - - 10 - - - -
03/08:00pm 18.3 S 11 15 1015.5 - 0.0 - - 10 - - - -
03/07:30pm 19.0 S 10 15 1015.2 - 0.0 - - 10 - - - -
03/07:00pm 19.8 SSE 11 15 1015.2 - 0.0 - - 10 - - - -
03/06:30pm 20.7 SSE 10 13 1015.2 - 0.0 - - 10 - - - -
03/06:00pm 21.1 SSE 10 14 1015.0 - 0.0 - - 10 - - - -
03/05:30pm 21.0 SSE 10 14 1015.0 - 0.0 - - 10 - - - -
03/05:00pm 21.3 SSE 10 13 1015.1 - 0.0 - - 10 - - - -
03/04:30pm 21.6 SE 10 13 1015.1 - 0.0 - - 10 - - - -
03/04:00pm 21.4 SE 10 14 1015.5 - 0.0 - - 10 - - - -
03/03:30pm 21.3 SE 9 14 1015.8 - 0.0 - - 10 - - - -
03/03:00pm 21.6 SSE 9 15 1016.1 - 0.0 - - 10 - - - -
03/02:30pm 21.1 SE 9 13 1016.3 - 0.0 - Partly cloudy 10 - - - -
03/02:00pm 20.8 S 7 13 1016.6 - 0.0 - - 10 - - - -
03/01:30pm 20.9 S 9 15 1016.9 - 0.0 - Partly cloudy 10 - - - -
03/01:00pm 20.5 SSE 9 12 1017.1 - 0.0 - Partly cloudy 10 - - - -
03/12:30pm 20.0 SSE 10 14 1017.4 - 0.0 - Partly cloudy 10 - - - -
03/12:00pm 19.3 SSE 9 14 1017.6 - 0.0 - Cloudy 10 - - - -
03/11:30am 18.9 SSE 9 13 1017.8 - 0.0 - Partly cloudy 10 - - - -
03/11:00am 18.8 S 9 12 1017.6 - 0.0 - Partly cloudy 10 - - - -
03/10:30am 19.2 SSW 8 12 1017.3 - 0.0 - Partly cloudy 10 - - - -
03/10:00am 18.9 SSW 9 13 1017.4 - 0.0 - - 10 - - - -
03/09:30am 17.9 SW 9 12 1017.4 - 0.0 - - 10 - - - -
03/09:00am 17.0 SW 8 10 1017.1 - 0.0 - Mostly cloudy 10 - - - -
03/08:30am 16.5 SW 7 9 1016.8 - 0.0 - - 10 - - - -
03/08:00am 15.8 SW 7 10 1016.6 - 0.0 - - 10 - - - -
03/07:30am 15.7 SW 6 8 1016.3 - 0.0 - - 10 - - - -
03/07:00am 15.7 WSW 4 5 1015.9 - 0.0 - - 10 - - - -
03/06:30am 15.8 W 4 5 1015.7 - 0.0 - - 10 - - - -
03/06:00am 16.3 WSW 5 6 1015.5 - 0.0 - Cloudy 10 - - - -
03/05:30am 16.4 W 5 6 1015.4 - 0.0 - - 10 - - - -
03/05:00am 16.5 WSW 5 7 1015.2 - 0.0 - - 10 - - - -
03/04:30am 16.6 WSW 4 6 1015.6 - 0.0 - - 10 - - - -
03/04:00am 16.7 SW 5 6 1015.6 - 0.0 - - 10 - - - -
03/03:30am 16.7 SW 7 9 1015.3 - 0.0 - - 10 - - - -
03/03:00am 16.6 SW 7 8 1015.0 - 0.0 - Cloudy 10 - - - -
03/02:30am 16.9 SW 7 9 1015.1 - 0.0 - - 10 - - - -
03/02:00am 17.2 SW 7 9 1015.7 - 0.0 - - 10 - - - -
03/01:30am 17.4 W 5 6 1015.9 - 0.0 - - 10 - - - -
03/01:00am 17.5 W 4 6 1015.6 - 0.0 - - 10 - - - -
03/12:30am 17.5 NW 5 6 1015.7 - 0.0 - - 10 - - - -
03/12:00am 18.5 SSE 2 4 1015.6 - 0.0 - Cloudy 10 - - - -
 
Date/Time
EDT
Temp

°C
Wind Pressure Rain
since 9am
mm
Weather Cloud Vis
km
Sea
Height
m
Swell
Dir
 
Speed
knots
Gust
knots
hPa Trend Height
m
Period
s
Dir
02/11:30pm 18.7 SSE 7 10 1015.2 - 0.0 - - 10 - - - -
02/11:00pm 18.7 SSE 5 7 1015.6 - 0.0 - - 10 - - - -
02/10:30pm 18.9 SSE 5 8 1015.6 - 0.0 - - 10 - - - -
02/10:00pm 19.2 SSE 7 9 1015.6 - 0.0 - - 10 - - - -
02/09:30pm 19.5 SSE 4 7 1015.7 - 0.0 - - 10 - - - -
02/09:00pm 19.7 SSE 5 8 1015.1 - 0.0 - Cloudy 10 - - - -
02/08:30pm 19.4 S 5 6 1014.6 - 0.0 - - 10 - - - -
02/08:00pm 19.5 SSE 6 8 1014.3 - 0.0 - - 10 - - - -
02/07:30pm 19.8 S 7 9 1014.1 - 0.0 - - 10 - - - -
02/07:00pm 20.3 S 8 11 1013.4 - 0.0 - - 10 - - - -
02/06:30pm 20.9 SSE 7 9 1013.8 - 0.0 - - 10 - - - -
02/06:00pm 21.8 SSE 6 8 1013.5 - 0.0 - Mostly cloudy 10 - - - -
02/05:30pm 22.2 SE 7 10 1013.1 - 0.0 - - 10 - - - -
02/05:00pm 21.5 SE 7 9 1013.6 - 0.0 - - 10 - - - -
02/04:30pm 21.5 SSE 8 11 1013.9 - 0.0 - - 10 - - - -
02/04:00pm 21.7 S 8 13 1014.3 - 0.0 - - 10 - - - -
02/03:30pm 20.9 SSE 6 8 1014.3 - 0.0 - - 10 - - - -
02/03:00pm 20.4 SSE 7 11 1014.9 - 0.0 - - 10 - - - -
02/02:30pm 19.7 SSE 7 10 1015.5 - 0.0 - - 10 - - - -
02/02:00pm 19.1 SSE 8 11 1015.7 - 0.0 - - 10 - - - -
02/01:30pm 20.2 E 5 8 1015.8 - 0.0 - - 10 - - - -
02/01:00pm 20.4 SSE 4 7 1016.3 - 0.0 - - 10 - - - -
02/12:30pm 20.2 SSE 4 6 1016.7 - 0.0 - - 10 - - - -
02/12:00pm 19.8 N 5 11 1017.1 - 0.0 - - 10 - - - -
02/11:30am 18.9 NNW 3 7 1017.7 - 0.0 - - 10 - - - -
02/11:00am 17.6 ENE 6 9 1018.1 - 0.0 - - 10 - - - -
02/10:30am 17.0 NE 6 10 1018.4 - 0.0 - - 10 - - - -
02/10:00am 16.6 NE 6 10 1018.6 - 0.0 - - 10 - - - -

Other Formats:

Comma delimited format used in spreadsheet applications
http://www.bom.gov.au/fwo/IDV60701/IDV60701.94865.axf

JavaScript Object Notation format (JSON) in row-major order
http://www.bom.gov.au/fwo/IDV60701/IDV60701.94865.json